createdAt,value
2023-09-07T00:03:10.200Z,57.04
2023-09-07T00:05:37.788Z,56.46
2023-09-07T00:08:06.756Z,57.01
2023-09-07T00:21:32.998Z,57.21
2023-09-07T00:24:04.379Z,57.57
2023-09-07T00:32:03.882Z,57.81
2023-09-07T00:34:33.957Z,58.31
2023-09-07T00:37:02.080Z,58.08
2023-09-07T00:39:29.897Z,58.09
2023-09-07T00:44:47.399Z,58.82
2023-09-07T01:16:54.391Z,58.60
2023-09-07T01:19:52.405Z,58.60
2023-09-07T01:22:27.519Z,58.72
2023-09-07T01:25:00.240Z,59.16
2023-09-07T01:27:27.749Z,59.17
2023-09-07T01:29:54.896Z,59.20
2023-09-07T01:32:22.249Z,59.55
2023-09-07T01:34:50.250Z,59.40
2023-09-07T01:37:17.246Z,59.48
2023-09-07T01:39:44.320Z,59.40
2023-09-07T01:42:11.352Z,59.69
2023-09-07T01:44:38.585Z,60.00
2023-09-07T01:47:05.707Z,59.90
2023-09-07T01:49:35.839Z,60.27
2023-09-07T01:52:04.029Z,60.24
2023-09-07T01:57:14.739Z,61.01
2023-09-07T01:59:41.870Z,60.26
2023-09-07T02:02:09.282Z,60.72
2023-09-07T02:04:36.534Z,61.00
2023-09-07T02:07:03.721Z,61.13
2023-09-07T02:09:33.569Z,60.94
2023-09-07T02:12:00.907Z,61.59
2023-09-07T02:14:29.153Z,61.15
2023-09-07T02:16:56.797Z,61.58
2023-09-07T02:19:26.560Z,61.53
2023-09-07T02:21:54.170Z,61.55
2023-09-07T02:24:23.530Z,62.31
2023-09-07T02:26:51.773Z,61.74
2023-09-07T02:29:19.821Z,62.49
2023-09-07T02:31:58.106Z,62.74
2023-09-07T02:34:32.252Z,62.72
2023-09-07T02:39:42.633Z,62.87
2023-09-07T02:48:08.651Z,62.94
2023-09-07T02:50:36.809Z,63.06
2023-09-07T02:53:07.440Z,63.41
2023-09-07T02:55:54.391Z,63.69
2023-09-07T02:58:25.218Z,63.73
2023-09-07T03:00:59.814Z,63.76
2023-09-07T03:06:14.701Z,63.83
2023-09-07T03:08:42.037Z,64.07
2023-09-07T03:11:10.789Z,64.23
2023-09-07T03:13:38.158Z,64.25
2023-09-07T03:16:08.221Z,64.30
2023-09-07T03:18:39.168Z,64.11
2023-09-07T03:27:08.642Z,64.65
2023-09-07T03:33:06.523Z,65.08
2023-09-07T03:47:20.701Z,65.33
2023-09-07T03:50:20.831Z,65.25
2023-09-07T07:04:50.690Z,63.41
2023-09-07T07:07:18.211Z,63.38
2023-09-07T07:09:44.955Z,61.72
2023-09-07T07:12:11.522Z,60.69
2023-09-07T07:14:38.113Z,60.79
2023-09-07T07:17:04.707Z,61.18
2023-09-07T07:19:32.434Z,59.99
2023-09-07T07:21:59.041Z,59.19
2023-09-07T07:24:25.623Z,59.32
2023-09-07T07:26:52.149Z,58.93
2023-09-07T07:29:18.776Z,59.01
2023-09-07T07:31:45.339Z,59.28
2023-09-07T07:34:11.935Z,57.21
2023-09-07T07:36:38.509Z,57.78
2023-09-07T07:39:06.085Z,57.68
2023-09-07T07:41:32.649Z,57.77
2023-09-07T07:43:59.219Z,57.25
2023-09-07T07:46:26.118Z,56.89
2023-09-07T07:48:52.916Z,57.48
2023-09-07T07:51:19.602Z,57.42
2023-09-07T07:53:46.317Z,57.30
2023-09-07T07:56:19.725Z,57.15
2023-09-07T07:58:46.376Z,57.04
2023-09-07T08:01:20.550Z,56.94
2023-09-07T08:03:47.568Z,57.60
2023-09-07T08:06:14.443Z,58.48
2023-09-07T08:08:43.505Z,58.69
2023-09-07T08:11:10.181Z,57.97
2023-09-07T08:13:37.050Z,58.43
2023-09-07T08:16:05.320Z,58.19
2023-09-07T08:18:35.184Z,58.58
2023-09-07T08:21:02.474Z,58.87
2023-09-07T08:23:29.263Z,58.58
2023-09-07T08:25:55.955Z,58.66
2023-09-07T08:28:22.588Z,58.38
2023-09-07T08:30:53.351Z,57.85
2023-09-07T08:33:21.096Z,58.05
2023-09-07T08:35:53.023Z,57.78
2023-09-07T08:38:19.894Z,58.00
2023-09-07T08:40:46.565Z,57.87
2023-09-07T08:43:14.033Z,58.44
2023-09-07T08:45:51.636Z,58.54
2023-09-07T08:48:19.984Z,58.08
2023-09-07T08:50:46.947Z,58.22
2023-09-07T08:53:13.607Z,58.37
2023-09-07T08:55:40.497Z,58.14
2023-09-07T08:58:07.293Z,58.96
2023-09-07T09:00:35.005Z,58.12
2023-09-07T09:03:02.644Z,57.98
2023-09-07T09:05:31.056Z,58.76
2023-09-07T09:08:05.084Z,57.83
2023-09-07T09:10:31.878Z,57.45
2023-09-07T09:12:59.274Z,58.28
2023-09-07T09:15:26.285Z,57.81
2023-09-07T09:17:53.110Z,57.43
2023-09-07T09:20:26.976Z,57.10
2023-09-07T09:22:55.199Z,57.55
2023-09-07T09:25:23.234Z,57.05
2023-09-07T09:27:49.894Z,56.17
2023-09-07T09:30:16.601Z,56.01
2023-09-07T09:32:44.331Z,55.97
2023-09-07T09:35:11.416Z,55.62
2023-09-07T09:37:45.413Z,55.96
2023-09-07T09:40:14.045Z,56.04
2023-09-07T09:42:43.685Z,55.86
2023-09-07T09:45:11.687Z,55.61
2023-09-07T09:47:43.140Z,55.83
2023-09-07T09:50:12.069Z,55.59
2023-09-07T09:52:39.928Z,55.54
2023-09-07T09:55:08.675Z,55.49
2023-09-07T09:57:38.486Z,55.22
2023-09-07T10:00:06.616Z,54.86
2023-09-07T10:02:38.520Z,55.81
2023-09-07T10:05:05.732Z,54.69
2023-09-07T10:07:43.957Z,55.26
2023-09-07T10:10:13.826Z,55.05
2023-09-07T10:12:42.128Z,54.55
2023-09-07T10:15:21.377Z,54.44
2023-09-07T10:17:48.209Z,55.42
2023-09-07T10:20:14.901Z,54.53
2023-09-07T10:22:41.634Z,55.04
2023-09-07T10:25:20.529Z,55.86
2023-09-07T10:27:47.141Z,55.71
2023-09-07T10:30:14.779Z,55.29
2023-09-07T10:32:41.636Z,55.15
2023-09-07T10:35:20.142Z,55.12
2023-09-07T10:37:47.284Z,55.10
2023-09-07T10:40:20.235Z,55.22
2023-09-07T10:42:46.910Z,55.01
2023-09-07T10:45:15.784Z,54.96
2023-09-07T10:47:46.857Z,54.38
2023-09-07T10:50:14.333Z,53.01
2023-09-07T10:52:42.242Z,53.89
2023-09-07T10:55:13.579Z,52.04
2023-09-07T10:57:45.402Z,51.69
2023-09-07T11:00:13.380Z,52.47
2023-09-07T11:02:41.080Z,51.34
2023-09-07T11:05:08.731Z,50.74
2023-09-07T11:07:35.762Z,50.68
2023-09-07T11:10:02.452Z,50.59
2023-09-07T11:12:29.009Z,50.85
2023-09-07T11:14:55.975Z,50.04
2023-09-07T11:17:31.589Z,50.27
2023-09-07T11:19:58.187Z,49.09
2023-09-07T11:22:24.950Z,48.34
2023-09-07T11:24:51.591Z,48.17
2023-09-07T11:27:19.226Z,48.73
2023-09-07T11:29:52.742Z,48.04
2023-09-07T11:32:19.383Z,47.76
2023-09-07T11:34:50.648Z,47.71
2023-09-07T11:37:18.887Z,48.43
2023-09-07T11:39:45.894Z,48.11
2023-09-07T11:42:12.643Z,47.39
2023-09-07T11:44:39.198Z,47.51
2023-09-07T11:47:05.860Z,47.29
2023-09-07T11:49:35.821Z,47.41
2023-09-07T11:52:02.658Z,47.45
2023-09-07T11:54:29.482Z,46.92
2023-09-07T11:56:56.446Z,46.69
2023-09-07T11:59:23.117Z,46.23
2023-09-07T12:01:49.807Z,46.61
2023-09-07T12:04:19.245Z,46.60
2023-09-07T12:06:46.333Z,45.81
2023-09-07T12:09:13.213Z,45.32
2023-09-07T12:11:47.730Z,46.88
2023-09-07T12:23:17.456Z,43.51
2023-09-07T13:44:55.339Z,34.67
2023-09-07T13:51:05.811Z,34.76
2023-09-07T13:53:20.281Z,34.72
2023-09-07T13:59:02.086Z,32.88
2023-09-07T14:01:57.454Z,32.47
2023-09-07T14:04:38.183Z,31.53
2023-09-07T14:07:16.530Z,31.53
2023-09-07T14:09:46.437Z,31.38
2023-09-07T14:12:13.737Z,30.78
2023-09-07T14:14:40.996Z,30.04
2023-09-07T14:17:08.148Z,29.44
2023-09-07T14:19:42.586Z,29.31
2023-09-07T14:22:09.920Z,29.72
2023-09-07T14:24:36.776Z,29.13
2023-09-07T14:27:03.740Z,29.63
2023-09-07T14:29:30.927Z,28.71
2023-09-07T14:31:57.983Z,28.68
2023-09-07T14:34:25.381Z,28.33
2023-09-07T14:36:52.581Z,28.13
2023-09-07T14:39:19.691Z,27.68
2023-09-07T14:41:46.643Z,27.49
2023-09-07T14:44:18.677Z,27.41
2023-09-07T14:46:48.370Z,27.38
2023-09-07T14:49:15.665Z,27.30
2023-09-07T14:51:42.789Z,26.99
2023-09-07T14:54:09.975Z,26.67
2023-09-07T14:56:37.228Z,26.76
2023-09-07T14:59:04.156Z,26.38
2023-09-07T15:01:31.246Z,25.80
2023-09-07T15:03:58.154Z,26.12
2023-09-07T15:06:25.196Z,25.87
2023-09-07T15:08:52.097Z,25.84
2023-09-07T15:11:18.881Z,25.98
2023-09-07T15:13:45.758Z,25.98
2023-09-07T15:16:12.788Z,25.83
2023-09-07T15:21:06.859Z,25.36
2023-09-07T15:23:33.737Z,25.88
2023-09-07T15:26:01.303Z,26.21
2023-09-07T15:28:28.329Z,26.04
2023-09-07T15:30:56.738Z,25.41
2023-09-07T15:33:24.737Z,25.41
2023-09-07T15:35:56.921Z,25.80
2023-09-07T15:38:27.226Z,25.51
2023-09-07T15:41:00.959Z,25.73
2023-09-07T15:43:28.460Z,25.57
2023-09-07T15:45:56.247Z,25.41
2023-09-07T15:48:26.666Z,25.81
2023-09-07T15:57:21.713Z,25.68
2023-09-07T15:59:49.241Z,25.77
2023-09-07T16:02:16.404Z,25.71
2023-09-07T16:04:44.108Z,25.58
2023-09-07T16:10:13.692Z,26.85
2023-09-07T16:12:43.707Z,26.81
2023-09-07T16:15:12.372Z,26.52
2023-09-07T16:17:43.547Z,26.91
2023-09-07T16:20:11.901Z,26.70
2023-09-07T16:22:42.877Z,26.36
2023-09-07T16:25:10.639Z,26.12
2023-09-07T16:27:37.697Z,25.80
2023-09-07T16:30:13.094Z,25.85
2023-09-07T16:32:41.658Z,26.01
2023-09-07T16:37:53.034Z,25.31
2023-09-07T16:40:22.223Z,25.05
2023-09-07T16:42:49.969Z,25.34
2023-09-07T16:45:17.958Z,25.52
2023-09-07T16:47:48.711Z,25.61
2023-09-07T16:50:15.972Z,25.36
2023-09-07T16:52:42.912Z,25.41
2023-09-07T16:55:14.453Z,25.23
2023-09-07T16:57:43.089Z,25.55
2023-09-07T17:02:56.765Z,25.35
2023-09-07T17:05:29.777Z,25.66
2023-09-07T17:10:48.932Z,25.31
2023-09-07T17:13:15.675Z,25.78
2023-09-07T17:15:42.334Z,26.35
2023-09-07T17:18:13.242Z,27.07
2023-09-07T17:20:40.531Z,27.69
2023-09-07T17:23:07.572Z,27.74
2023-09-07T17:25:34.730Z,28.22
2023-09-07T17:28:01.952Z,29.00
2023-09-07T17:30:30.051Z,30.07
2023-09-07T17:32:56.908Z,30.91
2023-09-07T17:35:24.591Z,31.39
2023-09-07T17:37:52.633Z,32.43
2023-09-07T17:40:19.261Z,33.43
2023-09-07T17:42:45.987Z,34.15
2023-09-07T17:45:12.732Z,34.86
2023-09-07T17:47:39.487Z,35.91
2023-09-07T17:50:07.032Z,36.54
2023-09-07T17:52:34.262Z,37.06
2023-09-07T17:55:01.166Z,37.50
2023-09-07T17:57:27.890Z,38.14
2023-09-07T17:59:54.491Z,38.36
2023-09-07T18:02:31.129Z,39.24
2023-09-07T18:05:01.269Z,39.74
2023-09-07T18:07:30.168Z,40.00
2023-09-07T18:09:56.725Z,40.20
2023-09-07T18:12:23.326Z,40.42
2023-09-07T18:14:49.950Z,40.73
2023-09-07T18:17:16.550Z,41.31
2023-09-07T18:19:43.078Z,41.13
2023-09-07T18:22:09.614Z,42.05
2023-09-07T18:24:36.254Z,42.00
2023-09-07T18:27:03.649Z,42.64
2023-09-07T18:29:30.370Z,42.85
2023-09-07T18:31:57.130Z,43.01
2023-09-07T18:34:24.187Z,43.89
2023-09-07T18:36:51.202Z,44.33
2023-09-07T18:39:17.918Z,44.48
2023-09-07T18:41:44.538Z,45.36
2023-09-07T18:44:11.103Z,45.33
2023-09-07T18:46:37.730Z,45.69
2023-09-07T18:49:04.610Z,45.81
2023-09-07T18:51:31.330Z,46.64
2023-09-07T18:53:57.944Z,47.30
2023-09-07T18:56:24.476Z,47.54
2023-09-07T18:58:51.128Z,47.88
2023-09-07T19:01:18.946Z,47.41
2023-09-07T19:03:54.019Z,47.87
2023-09-07T19:06:21.483Z,47.60
2023-09-07T19:08:48.176Z,47.63
2023-09-07T19:11:14.946Z,48.09
2023-09-07T19:13:41.715Z,48.86
2023-09-07T19:16:12.532Z,49.27
2023-09-07T19:18:39.116Z,48.62
2023-09-07T19:21:17.436Z,49.03
2023-09-07T19:23:49.600Z,48.86
2023-09-07T19:26:35.809Z,49.19
2023-09-07T19:29:05.033Z,49.28
2023-09-07T19:31:31.884Z,49.09
2023-09-07T19:33:58.862Z,49.00
2023-09-07T19:36:26.333Z,49.07
2023-09-07T19:38:55.304Z,49.40
2023-09-07T19:41:22.662Z,49.47
2023-09-07T19:43:50.005Z,49.25
2023-09-07T19:46:16.914Z,49.50
2023-09-07T19:49:06.905Z,49.97
2023-09-07T19:51:33.915Z,50.17
2023-09-07T19:54:00.837Z,49.95
2023-09-07T19:56:27.859Z,49.99
2023-09-07T19:58:55.287Z,50.13
2023-09-07T20:01:23.309Z,50.30
2023-09-07T20:03:51.945Z,50.67
2023-09-07T20:06:21.086Z,50.93
2023-09-07T20:08:48.197Z,50.65
2023-09-07T20:17:07.135Z,51.51
2023-09-07T20:25:34.840Z,51.73
2023-09-07T20:28:01.756Z,51.41
2023-09-07T20:30:29.278Z,51.36
2023-09-07T20:32:57.649Z,51.49
2023-09-07T20:35:25.049Z,51.46
2023-09-07T20:37:52.222Z,51.71
2023-09-07T20:40:22.495Z,51.81
2023-09-07T20:42:51.617Z,51.32
2023-09-07T20:45:18.518Z,51.90
2023-09-07T20:47:45.282Z,51.46
2023-09-07T20:50:12.058Z,51.96
2023-09-07T20:52:38.865Z,51.74
2023-09-07T20:55:06.221Z,52.49
2023-09-07T20:57:33.110Z,52.01
2023-09-07T21:00:00.028Z,52.33
2023-09-07T21:02:27.044Z,52.84
2023-09-07T21:04:53.778Z,52.76
2023-09-07T21:10:05.214Z,52.88
2023-09-07T21:12:32.092Z,53.24
2023-09-07T21:14:59.083Z,52.92
2023-09-07T21:17:26.118Z,52.80
2023-09-07T21:19:53.328Z,53.03
2023-09-07T21:22:20.956Z,53.21
2023-09-07T21:24:48.871Z,54.85
2023-09-07T21:30:07.009Z,56.74
2023-09-07T21:32:47.855Z,56.01
2023-09-07T21:38:14.817Z,56.24
2023-09-07T21:40:43.331Z,57.04
2023-09-07T21:43:15.705Z,56.76
2023-09-07T21:45:44.843Z,56.83
2023-09-07T21:48:14.773Z,56.26
2023-09-07T21:50:47.067Z,55.99
2023-09-07T21:53:20.716Z,56.26
2023-09-07T21:55:48.382Z,56.17
2023-09-07T21:58:20.121Z,56.01
2023-09-07T22:00:51.102Z,56.50
2023-09-07T22:03:20.969Z,56.30
2023-09-07T22:08:48.798Z,56.33
2023-09-07T22:11:16.398Z,56.56
2023-09-07T22:13:44.148Z,56.24
2023-09-07T22:16:11.964Z,56.04
2023-09-07T22:18:38.925Z,55.54
2023-09-07T22:21:06.755Z,55.81
2023-09-07T22:23:42.694Z,55.85
2023-09-07T22:26:11.205Z,56.50
2023-09-07T22:28:38.276Z,55.92
2023-09-07T22:31:05.222Z,56.30
2023-09-07T22:33:32.130Z,56.36
2023-09-07T22:35:59.211Z,56.44
2023-09-07T22:38:26.028Z,56.43
2023-09-07T22:40:57.233Z,56.48
2023-09-07T22:43:25.222Z,56.78
2023-09-07T22:45:52.152Z,57.40
2023-09-07T22:48:19.081Z,57.31
2023-09-07T22:50:46.348Z,56.81
2023-09-07T22:53:13.266Z,56.94
2023-09-07T22:55:43.333Z,57.81
2023-09-07T22:58:11.384Z,57.30
2023-09-07T23:00:41.455Z,57.65
2023-09-07T23:03:08.382Z,57.72
2023-09-07T23:05:35.528Z,57.66
2023-09-07T23:08:03.160Z,57.97
2023-09-07T23:10:30.129Z,57.82
2023-09-07T23:12:57.099Z,57.94
2023-09-07T23:15:24.047Z,58.16
2023-09-07T23:17:51.025Z,58.42
2023-09-07T23:20:18.442Z,58.51
2023-09-07T23:22:46.489Z,58.30
2023-09-07T23:25:13.756Z,58.55
2023-09-07T23:27:40.766Z,58.38
2023-09-07T23:30:09.928Z,59.00
2023-09-07T23:32:39.528Z,58.63
2023-09-07T23:35:09.273Z,58.89
2023-09-07T23:37:39.055Z,59.28
2023-09-07T23:40:07.705Z,59.10
2023-09-07T23:42:34.562Z,59.13
2023-09-07T23:45:01.348Z,59.49
2023-09-07T23:47:28.245Z,59.36
2023-09-07T23:49:55.446Z,59.42
2023-09-07T23:52:22.444Z,59.59
2023-09-07T23:54:49.562Z,59.72
2023-09-07T23:57:16.748Z,59.62
2023-09-07T23:59:43.669Z,59.87
